Time;durP1;ratioP1;P1;durP2;ratioP2;P2;SDS_P1;SDS_P2;PMS_P1;PMS_P2;Temp;Humidity;BMP_temperature;BMP_pressure;BME280_temperature;BME280_humidity;BME280_pressure;Samples;Min_cycle;Max_cycle;Signal;HPM_P1;HPM_P2
2022/08/30 00:01:01;;;;;;;8.80;2.90;;;;;;;15.20;64.51;99642.75;5068767;28;20551;-54
2022/08/30 00:01:55;;;;;;;6.35;2.90;;;;;;;15.19;65.81;99641.13;5054856;28;20068;-56
2022/08/30 00:04:20;;;;;;;9.20;3.00;;;;;;;15.10;68.08;99648.91;5065751;28;20403;-56
2022/08/30 00:06:46;;;;;;;6.03;2.95;;;;;;;14.77;66.59;99637.38;5065122;28;20031;-56
2022/08/30 00:09:11;;;;;;;10.07;3.00;;;;;;;14.69;67.03;99631.66;5066899;28;20027;-56
2022/08/30 00:11:36;;;;;;;6.10;2.90;;;;;;;14.76;68.16;99643.88;5063494;28;20029;-56
2022/08/30 00:14:02;;;;;;;7.50;3.00;;;;;;;14.91;66.36;99643.16;5071360;28;20543;-55
2022/08/30 00:16:28;;;;;;;6.22;3.15;;;;;;;14.87;65.59;99645.53;5071464;28;20433;-56
2022/08/30 00:18:53;;;;;;;8.07;3.00;;;;;;;14.85;66.09;99658.50;5071148;28;20017;-56
2022/08/30 00:21:19;;;;;;;4.95;2.83;;;;;;;14.84;67.80;99654.16;5071527;28;20024;-56
2022/08/30 00:23:44;;;;;;;16.27;3.20;;;;;;;14.66;67.62;99651.88;5071881;28;20016;-54
2022/08/30 00:26:10;;;;;;;4.70;2.70;;;;;;;14.63;68.08;99649.72;5069980;28;20356;-57
2022/08/30 00:28:36;;;;;;;7.72;3.10;;;;;;;14.37;67.44;99652.16;5061663;28;20025;-56
2022/08/30 00:31:01;;;;;;;6.50;3.10;;;;;;;14.40;67.40;99661.63;5062184;28;20037;-56
2022/08/30 00:33:27;;;;;;;8.13;3.20;;;;;;;14.59;66.71;99654.78;5062785;28;20036;-55
2022/08/30 00:35:52;;;;;;;6.80;3.33;;;;;;;14.44;67.52;99655.47;5061230;28;20028;-57
2022/08/30 00:38:18;;;;;;;9.98;3.25;;;;;;;14.53;66.27;99652.31;5070898;28;20078;-55
2022/08/30 00:40:43;;;;;;;6.97;3.33;;;;;;;14.57;67.47;99651.53;5066764;28;20025;-55
2022/08/30 00:43:12;;;;;;;8.90;3.28;;;;;;;14.61;65.88;99651.84;5065935;28;20074;-56
2022/08/30 00:45:38;;;;;;;11.90;3.78;;;;;;;14.64;65.48;99644.03;5069869;28;20086;-56
2022/08/30 00:48:04;;;;;;;6.70;3.22;;;;;;;14.78;65.41;99641.72;5064190;28;20032;-56
2022/08/30 00:50:33;;;;;;;7.70;3.30;;;;;;;14.80;64.77;99633.34;5064064;28;20489;-55
2022/08/30 00:52:59;;;;;;;10.93;3.55;;;;;;;15.00;66.03;99647.00;5066559;28;20398;-55
2022/08/30 00:55:24;;;;;;;6.05;2.88;;;;;;;15.04;66.88;99652.66;5069710;28;20032;-56
2022/08/30 00:57:51;;;;;;;9.88;3.20;;;;;;;14.94;66.14;99663.41;5067515;28;20122;-56
2022/08/30 01:00:17;;;;;;;12.07;3.40;;;;;;;14.74;66.86;99666.78;5066590;28;20498;-56
2022/08/30 01:02:42;;;;;;;6.10;3.00;;;;;;;14.58;66.44;99665.88;5052596;28;20029;-55
2022/08/30 01:05:09;;;;;;;7.00;2.75;;;;;;;14.28;68.91;99652.88;5066266;28;20043;-56
2022/08/30 01:07:35;;;;;;;8.38;3.17;;;;;;;14.16;70.14;99661.97;5099666;28;20044;-56
2022/08/30 01:10:01;;;;;;;9.35;3.30;;;;;;;14.15;68.54;99668.44;5070471;28;20100;-57
2022/08/30 01:12:28;;;;;;;6.45;3.28;;;;;;;14.13;69.00;99656.28;5102664;28;20089;-55
2022/08/30 01:14:54;;;;;;;6.28;3.05;;;;;;;14.28;69.23;99659.09;5052256;28;20029;-55
2022/08/30 01:17:19;;;;;;;6.95;3.20;;;;;;;14.01;68.38;99653.72;5099731;28;20031;-54
2022/08/30 01:19:49;;;;;;;7.45;3.33;;;;;;;14.24;66.74;99657.97;5066859;28;20489;-57
2022/08/30 01:22:17;;;;;;;8.30;3.42;;;;;;;14.07;67.41;99659.97;5062766;28;20090;-57
2022/08/30 01:24:46;;;;;;;6.82;3.10;;;;;;;14.35;68.06;99658.88;5068154;28;20021;-56
2022/08/30 01:27:17;;;;;;;6.70;3.03;;;;;;;14.36;67.05;99661.34;5064452;28;20339;-57
2022/08/30 01:29:43;;;;;;;11.25;3.42;;;;;;;14.17;67.40;99662.78;5065761;28;20028;-56
2022/08/30 01:32:17;;;;;;;7.78;3.20;;;;;;;14.03;68.80;99660.50;5061765;28;20398;-57
2022/08/30 01:34:44;;;;;;;12.68;3.33;;;;;;;13.88;68.69;99657.66;5059672;28;20029;-56
2022/08/30 01:37:10;;;;;;;7.75;3.30;;;;;;;13.67;69.09;99669.25;5051469;28;20115;-57
2022/08/30 01:39:35;;;;;;;9.73;3.08;;;;;;;13.86;68.53;99650.88;5055724;28;20100;-58
2022/08/30 01:42:01;;;;;;;9.20;3.20;;;;;;;14.64;65.16;99654.03;5067768;28;20016;-56
2022/08/30 01:44:26;;;;;;;9.07;3.10;;;;;;;14.63;65.02;99650.53;5068953;28;20032;-56
2022/08/30 01:46:52;;;;;;;13.18;3.65;;;;;;;14.92;64.10;99646.66;5065516;28;20028;-56
2022/08/30 01:49:18;;;;;;;8.30;3.13;;;;;;;14.96;65.71;99650.47;5069160;28;20024;-57
2022/08/30 01:51:43;;;;;;;9.25;3.20;;;;;;;14.41;66.67;99661.38;5066228;28;20023;-56
2022/08/30 01:54:09;;;;;;;9.40;3.70;;;;;;;14.16;66.72;99664.66;5064227;28;20066;-56
2022/08/30 01:56:34;;;;;;;6.05;3.05;;;;;;;13.95;68.19;99666.34;5070286;28;20021;-56
2022/08/30 01:59:00;;;;;;;6.22;3.20;;;;;;;13.47;69.58;99665.25;5064460;28;20025;-55
2022/08/30 02:01:26;;;;;;;6.95;3.13;;;;;;;13.34;70.54;99668.31;5049272;28;20037;-56
2022/08/30 02:03:51;;;;;;;7.72;3.35;;;;;;;13.49;71.78;99663.13;5084502;28;20013;-57
2022/08/30 02:06:17;;;;;;;6.15;2.97;;;;;;;13.63;71.23;99660.03;5069000;28;20041;-56
2022/08/30 02:08:43;;;;;;;8.55;3.22;;;;;;;13.61;69.25;99664.88;5067781;28;20081;-56
2022/08/30 02:11:09;;;;;;;7.15;3.20;;;;;;;13.56;70.12;99669.13;5069229;28;20044;-57
2022/08/30 02:13:36;;;;;;;8.73;3.47;;;;;;;13.53;70.06;99669.66;5069475;28;20102;-56
2022/08/30 02:16:02;;;;;;;10.52;3.67;;;;;;;13.16;71.53;99664.84;5064167;28;20029;-58
2022/08/30 02:18:28;;;;;;;8.80;3.30;;;;;;;13.21;71.68;99661.41;5055795;28;20032;-56
2022/08/30 02:20:53;;;;;;;7.32;3.30;;;;;;;13.32;70.62;99657.00;5084321;28;20025;-57
2022/08/30 02:23:19;;;;;;;6.93;3.05;;;;;;;13.17;71.07;99660.25;5061363;28;20017;-56
2022/08/30 02:25:44;;;;;;;5.90;3.20;;;;;;;13.28;71.85;99666.63;5062415;28;20024;-57
2022/08/30 02:28:10;;;;;;;8.90;3.15;;;;;;;13.34;70.86;99669.13;5066839;28;20028;-56
2022/08/30 02:30:35;;;;;;;7.28;3.30;;;;;;;13.47;73.24;99665.25;5063579;28;20108;-57
2022/08/30 02:33:01;;;;;;;7.07;3.00;;;;;;;13.50;71.00;99670.13;5064371;28;20067;-56
2022/08/30 02:35:26;;;;;;;5.32;3.10;;;;;;;13.35;70.67;99667.25;5060642;28;20485;-57
2022/08/30 02:37:51;;;;;;;12.80;3.72;;;;;;;13.09;71.97;99666.06;5053568;28;20025;-57
2022/08/30 02:40:17;;;;;;;6.10;3.10;;;;;;;13.15;71.00;99657.84;5064495;28;20037;-56
2022/08/30 02:42:43;;;;;;;11.93;3.17;;;;;;;13.48;71.57;99658.81;5068942;28;20454;-57
2022/08/30 02:45:09;;;;;;;11.18;3.10;;;;;;;13.70;71.48;99648.00;5057910;28;20025;-56
2022/08/30 02:47:34;;;;;;;7.63;3.15;;;;;;;13.58;71.03;99645.47;5065423;28;20417;-56
2022/08/30 02:50:02;;;;;;;7.00;3.40;;;;;;;13.30;71.68;99642.97;5052293;28;20125;-56
2022/08/30 02:52:27;;;;;;;5.70;3.28;;;;;;;13.19;71.62;99646.56;5065010;28;20493;-57
2022/08/30 02:54:54;;;;;;;9.43;3.17;;;;;;;13.00;72.31;99640.66;5068127;28;20020;-56
2022/08/30 02:57:19;;;;;;;10.70;3.38;;;;;;;12.76;72.88;99643.56;5069522;28;20035;-56
2022/08/30 02:59:46;;;;;;;14.48;2.88;;;;;;;12.92;72.52;99636.50;5063464;28;20029;-57
2022/08/30 03:02:12;;;;;;;10.88;3.58;;;;;;;13.13;72.30;99637.63;5052584;28;20108;-56
2022/08/30 03:04:38;;;;;;;6.20;3.17;;;;;;;13.12;71.59;99642.16;5055615;28;20361;-57
2022/08/30 03:07:04;;;;;;;9.70;3.05;;;;;;;13.26;71.24;99649.91;5063776;28;20112;-55
2022/08/30 03:09:30;;;;;;;7.40;3.03;;;;;;;13.30;70.38;99648.34;5072934;28;20025;-57
2022/08/30 03:11:56;;;;;;;7.05;2.80;;;;;;;13.35;69.97;99641.16;5072724;28;20025;-56
2022/08/30 03:14:21;;;;;;;8.80;3.38;;;;;;;13.36;70.50;99650.06;5067722;28;20070;-56
2022/08/30 03:16:47;;;;;;;8.93;3.25;;;;;;;13.48;71.00;99644.50;5062076;28;20024;-56
2022/08/30 03:19:12;;;;;;;5.60;2.85;;;;;;;13.58;71.47;99645.47;5072792;28;20146;-56
2022/08/30 03:21:37;;;;;;;6.47;2.90;;;;;;;13.65;70.60;99639.06;5060759;28;20037;-56
2022/08/30 03:24:03;;;;;;;9.68;3.45;;;;;;;13.56;70.33;99636.81;5065975;28;20032;-56
2022/08/30 03:26:28;;;;;;;9.43;3.15;;;;;;;13.52;70.41;99635.69;5059974;28;20440;-56
2022/08/30 03:28:54;;;;;;;11.18;3.17;;;;;;;13.48;70.62;99629.19;5067604;28;20036;-56
2022/08/30 03:31:19;;;;;;;7.70;3.05;;;;;;;13.25;70.64;99630.22;5071339;28;20035;-56
2022/08/30 03:33:45;;;;;;;11.25;3.15;;;;;;;13.11;70.89;99635.16;5069096;28;20035;-56
2022/08/30 03:36:10;;;;;;;10.65;3.28;;;;;;;13.20;70.51;99626.66;5066255;28;20039;-56
2022/08/30 03:38:37;;;;;;;7.47;3.03;;;;;;;13.14;70.96;99640.03;5065777;28;20021;-56
2022/08/30 03:41:03;;;;;;;8.02;3.30;;;;;;;13.23;71.80;99643.13;5068598;28;20029;-56
2022/08/30 03:43:28;;;;;;;6.63;3.13;;;;;;;13.07;71.39;99635.91;5064559;28;20039;-56
2022/08/30 03:45:54;;;;;;;10.65;3.22;;;;;;;13.00;73.04;99636.06;5067189;28;20025;-56
2022/08/30 03:48:19;;;;;;;17.25;4.10;;;;;;;12.95;71.96;99642.22;5068320;28;20032;-56
2022/08/30 03:50:45;;;;;;;8.30;3.03;;;;;;;13.06;71.66;99636.97;5071656;28;20062;-56
2022/08/30 03:53:11;;;;;;;11.40;3.90;;;;;;;13.11;72.86;99642.44;5072722;28;20024;-56
2022/08/30 03:55:36;;;;;;;9.63;3.20;;;;;;;13.28;73.71;99634.31;5071857;28;20039;-57
2022/08/30 03:58:02;;;;;;;6.82;3.17;;;;;;;13.21;71.85;99633.69;5072238;28;20459;-56
2022/08/30 04:00:27;;;;;;;10.20;3.22;;;;;;;13.17;72.11;99634.16;5072048;28;20051;-55
2022/08/30 04:02:53;;;;;;;14.30;3.40;;;;;;;13.07;72.10;99634.03;5072508;28;20020;-56
2022/08/30 04:05:18;;;;;;;10.80;3.35;;;;;;;13.08;72.17;99635.66;5064989;28;20054;-57
2022/08/30 04:07:44;;;;;;;8.65;3.22;;;;;;;13.05;72.50;99646.09;5061586;28;20067;-57
2022/08/30 04:10:09;;;;;;;9.88;3.42;;;;;;;13.10;71.99;99641.63;5062068;28;20020;-57
2022/08/30 04:12:35;;;;;;;12.77;3.53;;;;;;;12.86;72.96;99637.50;5064115;28;20060;-56
2022/08/30 04:15:01;;;;;;;10.75;3.53;;;;;;;12.66;73.92;99635.34;5062653;28;20078;-57
2022/08/30 04:17:27;;;;;;;12.60;3.35;;;;;;;12.73;75.52;99636.00;5070342;28;20033;-56
2022/08/30 04:19:52;;;;;;;9.85;3.53;;;;;;;12.89;73.79;99631.63;5071626;28;20029;-57
2022/08/30 04:22:18;;;;;;;8.32;3.85;;;;;;;12.92;73.38;99631.94;5060476;28;20025;-55
2022/08/30 04:24:43;;;;;;;6.25;3.00;;;;;;;12.94;73.79;99629.00;5068207;28;20028;-56
2022/08/30 04:27:09;;;;;;;11.00;3.50;;;;;;;12.86;73.32;99624.06;5065201;28;20035;-56
2022/08/30 04:29:34;;;;;;;10.13;3.90;;;;;;;12.91;74.22;99629.50;5065114;28;20024;-56
2022/08/30 04:32:00;;;;;;;10.70;3.58;;;;;;;12.61;74.14;99628.00;5092835;28;20031;-57
2022/08/30 04:34:25;;;;;;;8.95;3.40;;;;;;;12.74;75.93;99643.78;5071038;28;20067;-55
2022/08/30 04:36:51;;;;;;;7.22;3.47;;;;;;;12.66;75.26;99638.03;5071764;28;20082;-56
2022/08/30 04:39:16;;;;;;;11.00;3.40;;;;;;;12.63;74.49;99647.41;5064183;28;20040;-56
2022/08/30 04:41:42;;;;;;;9.73;4.15;;;;;;;12.66;74.86;99649.59;5070744;28;20025;-56
2022/08/30 04:44:07;;;;;;;7.43;3.58;;;;;;;12.44;75.04;99654.88;5058161;28;20016;-56
2022/08/30 04:46:34;;;;;;;11.90;3.67;;;;;;;12.60;73.99;99649.75;5067637;28;20025;-55
2022/08/30 04:49:00;;;;;;;8.90;3.90;;;;;;;12.61;74.92;99652.22;5071685;28;20031;-55
2022/08/30 04:51:25;;;;;;;10.75;3.78;;;;;;;12.73;74.22;99650.25;5071071;28;20032;-56
2022/08/30 04:53:51;;;;;;;9.68;3.67;;;;;;;12.70;74.29;99655.28;5066100;28;20047;-55
2022/08/30 04:56:18;;;;;;;12.60;3.90;;;;;;;12.65;74.54;99661.41;5070609;28;20383;-55
2022/08/30 04:58:44;;;;;;;9.68;3.50;;;;;;;12.42;75.17;99656.19;5059862;28;20033;-55
2022/08/30 05:01:14;;;;;;;8.95;3.70;;;;;;;12.83;73.68;99659.50;5065183;28;20020;-57
2022/08/30 05:03:40;;;;;;;8.35;3.45;;;;;;;13.54;71.37;99663.19;5071243;28;20115;-55
2022/08/30 05:06:05;;;;;;;8.48;3.60;;;;;;;14.38;68.73;99669.97;5068615;28;20550;-56
2022/08/30 05:08:31;;;;;;;12.80;3.30;;;;;;;13.86;69.15;99670.56;5062507;28;20020;-55
2022/08/30 05:10:56;;;;;;;5.90;3.40;;;;;;;13.70;70.51;99668.75;5067375;28;20029;-54
2022/08/30 05:13:22;;;;;;;10.50;4.00;;;;;;;14.01;68.90;99676.09;5062159;28;20024;-55
2022/08/30 05:15:47;;;;;;;11.15;3.90;;;;;;;14.63;67.71;99672.09;5062216;28;20525;-55
2022/08/30 05:18:14;;;;;;;13.52;4.03;;;;;;;15.38;64.60;99676.63;5066349;28;20029;-56
2022/08/30 05:20:39;;;;;;;12.55;4.00;;;;;;;15.52;63.91;99677.75;5052592;28;20386;-55
2022/08/30 05:23:05;;;;;;;10.68;4.07;;;;;;;15.82;63.16;99684.34;5062732;28;20032;-56
2022/08/30 05:25:32;;;;;;;8.23;3.70;;;;;;;17.24;57.74;99685.50;5070581;28;20371;-55
2022/08/30 05:27:57;;;;;;;7.30;3.72;;;;;;;17.87;56.51;99687.69;5064373;28;20053;-56
2022/08/30 05:30:24;;;;;;;10.43;3.80;;;;;;;19.03;53.24;99691.75;5065343;28;20025;-55
2022/08/30 05:32:50;;;;;;;9.23;3.92;;;;;;;19.34;52.07;99686.78;5053068;28;20035;-55
2022/08/30 05:35:15;;;;;;;10.50;3.95;;;;;;;19.68;51.32;99691.31;5065833;28;20072;-55
2022/08/30 05:37:41;;;;;;;10.07;4.75;;;;;;;18.02;54.53;99694.94;5062113;28;20024;-55
2022/08/30 05:40:07;;;;;;;9.82;4.10;;;;;;;17.21;58.62;99696.88;5066330;28;20032;-55
2022/08/30 05:42:33;;;;;;;13.80;4.50;;;;;;;16.92;58.36;99700.16;5070262;28;20052;-55
2022/08/30 05:44:58;;;;;;;11.13;4.28;;;;;;;16.76;58.93;99690.44;5069821;28;20116;-55
2022/08/30 05:47:23;;;;;;;13.98;4.40;;;;;;;18.16;56.36;99685.09;5069824;28;20467;-56
2022/08/30 05:49:49;;;;;;;12.18;4.50;;;;;;;18.20;54.87;99686.16;5069498;28;20086;-56
2022/08/30 05:52:16;;;;;;;14.55;4.10;;;;;;;19.17;52.60;99685.34;5069350;28;20566;-56
2022/08/30 05:54:43;;;;;;;9.50;4.20;;;;;;;20.84;48.50;99693.41;5046757;28;20037;-56
2022/08/30 05:57:08;;;;;;;8.57;4.25;;;;;;;21.86;45.38;99698.00;5065031;28;20511;-56
2022/08/30 05:59:34;;;;;;;8.90;4.32;;;;;;;22.16;44.96;99699.22;5060063;28;20029;-56
2022/08/30 06:01:59;;;;;;;13.25;4.38;;;;;;;21.78;45.24;99696.00;5063243;28;20164;-56
2022/08/30 06:04:25;;;;;;;11.02;4.65;;;;;;;22.13;44.27;99694.41;5062796;28;20028;-56
2022/08/30 06:06:50;;;;;;;16.05;4.68;;;;;;;21.75;45.03;99698.22;5068390;28;20120;-56
2022/08/30 06:09:16;;;;;;;15.75;5.18;;;;;;;21.21;46.06;99693.56;5069020;28;20466;-56
2022/08/30 06:11:45;;;;;;;15.55;5.30;;;;;;;22.52;44.13;99698.44;5060167;28;20021;-56
2022/08/30 06:14:10;;;;;;;14.03;4.80;;;;;;;22.09;44.94;99696.94;5059054;28;20048;-56
2022/08/30 06:16:37;;;;;;;11.35;5.13;;;;;;;22.34;44.71;99692.84;5062640;28;20502;-56
2022/08/30 06:19:03;;;;;;;16.38;4.88;;;;;;;22.87;43.57;99687.72;5063128;28;20414;-57
2022/08/30 06:21:30;;;;;;;13.23;4.60;;;;;;;22.40;44.48;99691.59;5066651;28;20025;-56
2022/08/30 06:23:56;;;;;;;25.48;5.10;;;;;;;23.54;42.06;99694.94;5069310;28;20038;-55
2022/08/30 06:26:21;;;;;;;16.23;5.47;;;;;;;22.77;43.29;99695.06;5064508;28;20119;-56
2022/08/30 06:28:48;;;;;;;15.02;5.25;;;;;;;24.08;41.17;99695.56;5065280;28;20533;-55
2022/08/30 06:31:14;;;;;;;13.30;4.82;;;;;;;25.10;38.98;99699.66;5065474;28;20045;-56
2022/08/30 06:33:39;;;;;;;11.68;5.00;;;;;;;24.20;40.27;99695.72;5065967;28;20420;-56
2022/08/30 06:36:06;;;;;;;15.98;4.72;;;;;;;24.12;40.98;99699.28;5066636;28;20047;-56
2022/08/30 06:38:32;;;;;;;14.55;4.80;;;;;;;23.22;42.92;99692.28;5069036;28;20025;-56
2022/08/30 06:40:57;;;;;;;13.43;5.05;;;;;;;23.69;41.75;99694.53;5066493;28;20494;-55
2022/08/30 06:43:23;;;;;;;16.38;5.32;;;;;;;24.85;39.77;99691.16;5065449;28;20143;-55
2022/08/30 06:45:48;;;;;;;14.75;5.25;;;;;;;25.42;38.54;99695.50;5068527;28;20395;-55
2022/08/30 06:48:14;;;;;;;18.13;5.07;;;;;;;24.88;39.45;99700.66;5056517;28;20025;-56
2022/08/30 06:50:40;;;;;;;15.27;4.75;;;;;;;25.58;38.01;99699.28;5068924;28;20078;-56
2022/08/30 06:53:06;;;;;;;17.75;5.03;;;;;;;25.05;38.41;99703.38;5069389;28;20287;-55
2022/08/30 06:55:32;;;;;;;10.77;4.30;;;;;;;23.51;41.54;99701.06;5063200;28;20070;-56
2022/08/30 06:58:01;;;;;;;14.85;4.80;;;;;;;22.95;42.50;99701.44;5059610;28;20029;-56
2022/08/30 07:00:26;;;;;;;17.48;5.07;;;;;;;23.53;42.01;99701.53;5068863;28;20029;-56
2022/08/30 07:02:52;;;;;;;20.02;4.78;;;;;;;24.55;40.05;99701.22;5058137;28;20490;-57
2022/08/30 07:05:20;;;;;;;18.27;4.60;;;;;;;24.85;39.24;99696.66;5058683;28;20072;-56
2022/08/30 07:07:46;;;;;;;19.55;4.80;;;;;;;23.95;40.93;99693.78;5061231;28;20033;-55
2022/08/30 07:10:13;;;;;;;15.73;4.80;;;;;;;23.52;42.00;99694.47;5063402;28;20495;-55
2022/08/30 07:12:39;;;;;;;14.20;4.68;;;;;;;24.05;41.65;99698.94;5068915;28;20479;-56
2022/08/30 07:15:04;;;;;;;19.35;5.55;;;;;;;24.12;42.16;99702.00;5063151;28;20024;-55
2022/08/30 07:20:15;;;;;;;17.15;4.63;;;;;;;24.33;42.00;99705.72;5066996;28;20034;-55
2022/08/30 07:22:41;;;;;;;24.48;5.28;;;;;;;23.62;42.78;99707.84;5063995;28;20037;-55
2022/08/30 07:25:06;;;;;;;32.28;6.43;;;;;;;23.43;42.64;99711.66;5062175;28;20061;-53
2022/08/30 07:27:32;;;;;;;39.03;5.97;;;;;;;23.17;43.21;99716.22;5066737;28;20025;-55
2022/08/30 07:29:58;;;;;;;28.52;5.70;;;;;;;24.39;41.59;99709.09;5101270;28;20028;-55
2022/08/30 07:32:24;;;;;;;38.35;6.55;;;;;;;23.88;41.99;99711.47;5069006;28;20024;-55
2022/08/30 07:34:49;;;;;;;49.03;7.47;;;;;;;23.84;42.82;99715.19;5067954;28;20490;-55
2022/08/30 07:37:14;;;;;;;49.85;6.03;;;;;;;24.05;41.81;99715.38;5068911;28;20032;-55
2022/08/30 07:39:40;;;;;;;83.32;7.85;;;;;;;25.04;40.68;99712.75;5068418;28;20293;-55
2022/08/30 07:42:05;;;;;;;89.28;9.07;;;;;;;24.46;41.04;99717.69;5064068;28;20468;-55
2022/08/30 07:44:31;;;;;;;100.00;10.02;;;;;;;24.17;42.48;99717.47;5059040;28;20041;-55
2022/08/30 07:46:56;;;;;;;75.35;9.68;;;;;;;24.00;42.86;99713.59;5061021;28;20032;-55
2022/08/30 07:49:22;;;;;;;82.15;9.02;;;;;;;23.80;42.92;99714.22;5065780;28;20021;-55
2022/08/30 07:51:47;;;;;;;64.78;8.57;;;;;;;23.94;42.77;99716.78;5062936;28;20024;-55
2022/08/30 07:54:13;;;;;;;70.93;8.18;;;;;;;24.97;41.12;99709.69;5070608;28;20067;-55
2022/08/30 07:56:38;;;;;;;75.25;8.73;;;;;;;25.17;41.00;99717.22;5067831;28;20029;-56
2022/08/30 07:59:04;;;;;;;61.10;8.02;;;;;;;24.76;41.15;99715.03;5064801;28;20020;-55
2022/08/30 08:01:29;;;;;;;59.25;7.65;;;;;;;24.77;40.91;99715.88;5061630;28;20044;-55
2022/08/30 08:03:55;;;;;;;50.72;6.70;;;;;;;25.10;41.03;99719.63;5065290;28;20387;-56
2022/08/30 08:06:20;;;;;;;76.38;7.07;;;;;;;25.02;40.73;99714.19;5058800;28;20471;-55
2022/08/30 08:08:46;;;;;;;52.42;6.68;;;;;;;25.47;40.48;99720.03;5070479;28;20024;-56
2022/08/30 08:11:20;;;;;;;41.03;6.60;;;;;;;24.05;42.62;99720.84;5071451;28;20020;-57
2022/08/30 08:13:46;;;;;;;36.65;6.25;;;;;;;24.68;41.63;99713.13;5062135;28;20035;-55
2022/08/30 08:16:12;;;;;;;48.42;6.15;;;;;;;25.65;39.96;99719.94;5068699;28;20069;-56
2022/08/30 08:18:37;;;;;;;34.25;5.80;;;;;;;26.59;38.78;99717.69;5055666;28;20396;-55
2022/08/30 08:21:02;;;;;;;15.25;4.53;;;;;;;26.19;39.24;99717.34;5064398;28;20035;-55
2022/08/30 08:23:28;;;;;;;13.73;3.67;;;;;;;25.33;40.60;99722.97;5071632;28;20043;-55
2022/08/30 08:25:53;;;;;;;34.58;6.00;;;;;;;26.49;38.95;99726.31;5071450;28;20017;-55
2022/08/30 08:28:19;;;;;;;24.88;4.80;;;;;;;25.51;41.04;99726.47;5069661;28;20028;-55
2022/08/30 08:30:44;;;;;;;45.45;6.68;;;;;;;25.51;40.37;99720.97;5067883;28;20035;-55
2022/08/30 08:33:12;;;;;;;42.50;6.40;;;;;;;25.87;40.09;99727.09;5055173;28;20017;-55
2022/08/30 08:35:37;;;;;;;31.35;5.88;;;;;;;26.58;39.24;99729.00;5056578;28;20028;-55
2022/08/30 08:38:03;;;;;;;26.83;5.60;;;;;;;26.60;39.41;99726.72;5070478;28;20403;-55
2022/08/30 08:40:29;;;;;;;26.50;5.22;;;;;;;25.56;40.24;99730.94;5070878;28;20024;-55
2022/08/30 08:43:14;;;;;;;24.85;4.93;;;;;;;25.18;40.85;99718.81;5067402;28;20035;-55
2022/08/30 08:45:46;;;;;;;40.15;4.95;;;;;;;25.15;42.32;99718.66;5060409;28;20120;-55
2022/08/30 08:48:22;;;;;;;21.65;4.45;;;;;;;25.98;40.07;99723.63;5066647;28;20035;-54
2022/08/30 08:53:36;;;;;;;17.10;4.32;;;;;;;25.95;39.77;99713.31;5057613;28;20039;-55
2022/08/30 08:56:13;;;;;;;15.57;4.13;;;;;;;26.03;39.73;99717.13;5051121;28;20035;-55
2022/08/30 08:59:01;;;;;;;13.65;4.22;;;;;;;25.27;41.42;99709.78;5052585;28;20043;-55
2022/08/30 09:01:27;;;;;;;11.30;3.67;;;;;;;25.83;40.92;99715.94;5053243;28;20484;-55
2022/08/30 09:03:54;;;;;;;17.05;4.47;;;;;;;26.16;39.27;99702.34;5066634;28;20028;-55
2022/08/30 09:06:31;;;;;;;17.95;3.90;;;;;;;26.06;40.46;99696.44;5052736;28;20075;-55
2022/08/30 09:08:57;;;;;;;20.52;4.10;;;;;;;26.06;39.60;99694.50;5059189;28;20127;-55
2022/08/30 09:11:25;;;;;;;22.40;4.30;;;;;;;26.49;39.42;99689.78;5068447;28;20116;-55
2022/08/30 09:13:50;;;;;;;21.13;4.18;;;;;;;26.96;38.31;99695.78;5065668;28;20029;-55
2022/08/30 09:16:44;;;;;;;19.42;4.70;;;;;;;26.92;38.73;99694.84;5069897;28;20040;-54
2022/08/30 09:19:10;;;;;;;17.83;4.03;;;;;;;26.96;38.34;99694.97;5068244;28;20044;-55
2022/08/30 09:21:36;;;;;;;20.60;3.85;;;;;;;27.04;37.66;99696.84;5053681;28;20086;-54
2022/08/30 09:24:03;;;;;;;10.27;3.53;;;;;;;26.08;39.09;99691.41;5061258;28;20482;-55
2022/08/30 09:26:38;;;;;;;11.98;4.25;;;;;;;25.07;41.01;99686.59;5070456;28;20032;-55
2022/08/30 09:29:04;;;;;;;19.05;3.95;;;;;;;25.46;40.30;99685.50;5052865;28;20029;-55
2022/08/30 09:31:53;;;;;;;13.68;4.32;;;;;;;26.25;39.39;99678.34;5062118;28;20040;-54
2022/08/30 09:34:20;;;;;;;24.25;4.28;;;;;;;25.26;39.65;99676.06;5057866;28;20515;-54
2022/08/30 09:36:48;;;;;;;15.25;4.35;;;;;;;25.14;40.10;99679.47;5056278;28;20078;-54
2022/08/30 09:39:30;;;;;;;13.75;4.20;;;;;;;25.47;39.36;99678.06;5061961;28;20390;-55
2022/08/30 09:42:14;;;;;;;13.93;3.70;;;;;;;25.25;39.71;99674.44;5064698;28;20029;-54
2022/08/30 09:44:39;;;;;;;14.02;3.67;;;;;;;25.90;38.99;99677.00;5068503;28;20037;-54
2022/08/30 09:47:05;;;;;;;13.43;4.22;;;;;;;26.00;39.06;99671.13;5066326;28;20039;-55
2022/08/30 09:49:39;;;;;;;10.07;3.90;;;;;;;25.94;38.96;99672.47;5068953;28;20040;-53
2022/08/30 09:52:07;;;;;;;15.18;3.67;;;;;;;25.60;39.40;99669.56;5064379;28;20513;-54
2022/08/30 09:54:41;;;;;;;11.98;4.50;;;;;;;25.26;40.07;99658.78;5063299;28;20032;-54
2022/08/30 09:57:11;;;;;;;18.27;4.28;;;;;;;25.48;39.39;99665.94;5069394;28;20035;-55
2022/08/30 09:59:46;;;;;;;18.02;3.78;;;;;;;25.74;39.05;99657.56;5068799;28;20028;-54
2022/08/30 10:02:25;;;;;;;22.02;3.80;;;;;;;26.31;38.37;99647.91;5056618;28;20017;-54
2022/08/30 10:05:12;;;;;;;12.15;3.78;;;;;;;26.94;37.54;99654.06;5050864;28;20037;-54
2022/08/30 10:08:03;;;;;;;14.77;3.75;;;;;;;26.82;37.06;99657.59;5061641;28;20036;-55
2022/08/30 10:10:51;;;;;;;14.30;3.85;;;;;;;26.42;37.99;99655.41;5059457;28;20108;-55
2022/08/30 10:13:44;;;;;;;20.08;5.20;;;;;;;26.60;37.86;99661.56;5067042;28;20429;-55
2022/08/30 10:16:18;;;;;;;7.30;3.70;;;;;;;26.28;38.18;99656.81;5063128;28;20036;-54
2022/08/30 10:19:02;;;;;;;14.20;3.45;;;;;;;25.87;38.92;99651.03;5068172;28;20028;-54
2022/08/30 10:21:32;;;;;;;12.55;3.85;;;;;;;27.73;36.26;99646.41;5062552;28;20035;-55
2022/08/30 10:24:09;;;;;;;10.88;3.72;;;;;;;27.02;37.10;99644.13;5065861;28;20029;-54
2022/08/30 10:26:52;;;;;;;11.82;3.30;;;;;;;27.39;36.37;99641.41;5101569;28;20016;-55
2022/08/30 10:29:22;;;;;;;11.50;3.30;;;;;;;27.37;35.30;99638.97;5061336;28;20395;-54
2022/08/30 10:32:04;;;;;;;9.30;3.58;;;;;;;26.42;37.08;99638.91;5054453;28;20567;-55
2022/08/30 10:34:50;;;;;;;11.73;3.70;;;;;;;27.40;35.81;99629.22;5077651;28;20037;-55
2022/08/30 10:37:19;;;;;;;12.15;3.38;;;;;;;26.88;36.34;99636.19;5053930;28;20039;-52
2022/08/30 10:43:02;;;;;;;9.65;3.33;;;;;;;26.89;35.93;99624.84;5057855;28;20608;-54
2022/08/30 10:45:27;;;;;;;9.10;3.28;;;;;;;27.12;35.54;99624.41;5052781;28;20061;-54
2022/08/30 10:48:12;;;;;;;19.08;5.05;;;;;;;27.00;35.16;99625.19;5086188;28;20086;-53
2022/08/30 10:50:44;;;;;;;14.50;3.35;;;;;;;27.20;34.27;99629.00;5067696;28;20028;-55
2022/08/30 10:53:20;;;;;;;8.32;3.30;;;;;;;26.78;35.20;99628.38;5056939;28;20028;-53
2022/08/30 10:56:00;;;;;;;13.65;3.90;;;;;;;27.19;34.96;99616.41;5062882;28;20155;-55
2022/08/30 10:58:25;;;;;;;10.30;3.60;;;;;;;28.30;33.76;99616.16;5052624;28;20172;-54
2022/08/30 11:01:06;;;;;;;22.17;3.97;;;;;;;28.50;33.28;99620.66;5095015;28;20475;-53
2022/08/30 11:03:45;;;;;;;14.23;4.43;;;;;;;28.93;31.74;99620.97;5062032;28;20062;-54
2022/08/30 11:06:34;;;;;;;16.52;5.55;;;;;;;27.38;33.35;99621.31;5062832;28;20048;-53
2022/08/30 11:09:21;;;;;;;16.70;5.00;;;;;;;27.85;33.32;99620.00;5050297;28;20040;-54
2022/08/30 11:11:58;;;;;;;11.85;3.47;;;;;;;27.87;33.28;99620.47;5065572;28;20036;-54
2022/08/30 11:14:23;;;;;;;12.70;3.83;;;;;;;26.93;34.02;99618.66;5052111;28;20052;-53
2022/08/30 11:16:50;;;;;;;17.30;3.92;;;;;;;27.51;33.37;99611.13;5089636;28;20472;-54
2022/08/30 11:19:18;;;;;;;11.02;3.65;;;;;;;27.05;34.61;99615.91;5058601;28;20039;-53
2022/08/30 11:21:43;;;;;;;11.63;3.63;;;;;;;27.03;34.55;99612.69;5090876;28;20058;-54
2022/08/30 11:24:20;;;;;;;20.05;4.53;;;;;;;27.68;33.96;99607.28;5058889;28;20029;-53
2022/08/30 11:26:47;;;;;;;12.30;4.07;;;;;;;27.24;33.43;99607.94;5071531;28;20437;-54
2022/08/30 11:29:35;;;;;;;8.57;3.25;;;;;;;27.11;33.50;99612.59;5072701;28;20067;-54
2022/08/30 11:32:14;;;;;;;8.75;3.40;;;;;;;27.15;33.83;99604.44;5063233;28;20029;-55
2022/08/30 11:34:46;;;;;;;8.95;3.25;;;;;;;26.88;33.11;99615.00;5062083;28;20025;-54
2022/08/30 11:37:39;;;;;;;10.32;3.70;;;;;;;27.48;32.87;99600.78;5069859;28;20664;-54
2022/08/30 11:40:08;;;;;;;6.35;3.33;;;;;;;27.12;33.08;99605.16;5061602;28;20101;-54